Flight Track Log - Related Links

Times and Time Zones

All times are in EDT time to prevent confusion due to time zone crossing. See the N851TB flight status page for this flight to view local times or setup timezone preferences in your user account.

Time Position Orientation Groundspeed Altitude Reporting Facility
EDT Latitude Longitude Course Direction KTS MPH feet Rate Location/Type
Fri 04:03:55 PM 27.9333 -81.8000 178° South 92 106 900  Level Tampa TRACON
Fri 04:04:39 PM 27.9100 -81.7992 178° South 146 168 1,700 1,178 Climbing Miami Center
Fri 04:05:42 PM 27.8644 -81.7947 175° South 157 181 3,000 768 Climbing Miami Center
Fri 04:06:44 PM 27.8050 -81.7906 176° South 212 244 3,300 1,306 Climbing Miami Center
Fri 04:07:46 PM 27.7444 -81.7708 164° South 182 209 5,700 2,226 Climbing Miami Center
Fri 04:08:48 PM 27.7033 -81.7600 167° South 157 181 7,900 2,032 Climbing Miami Center
Fri 04:09:50 PM 27.6606 -81.7461 164° South 156 180 9,900 1,839 Climbing Miami Center
Fri 04:10:52 PM 27.6164 -81.7333 166° South 159 183 11,700 1,742 Climbing Miami Center
Fri 04:11:54 PM 27.5686 -81.7197 166° South 173 199 13,500 1,536 Climbing Miami Center
Fri 04:12:57 PM 27.5178 -81.7042 165° South 185 213 14,900 672 Climbing Miami Center
Fri 04:13:59 PM 27.4353 -81.6800 165° South 257 296 14,900  Level Miami Center
Fri 04:15:01 PM 27.3583 -81.6572 165° South 282 325 14,900  Level Miami Center
Fri 04:16:03 PM 27.2806 -81.6347 166° South 286 329 14,900  Level Miami Center
Fri 04:17:05 PM 27.2028 -81.6114 165° South 287 330 14,900 48 Level Miami Center
Fri 04:18:08 PM 27.1261 -81.5889 165° South 286 329 15,000 48 Climbing Miami Center
Fri 04:19:10 PM 27.0492 -81.5664 165° South 286 329 15,000  Level Miami Center
Fri 04:20:12 PM 26.9556 -81.5394 166° South 285 328 15,000  Level Miami Center
Fri 04:21:14 PM 26.8789 -81.5172 166° South 286 329 15,000  Level Miami Center
Fri 04:22:16 PM 26.7956 -81.4928 165° South 286 329 15,000  Level Miami Center
Fri 04:23:18 PM 26.7183 -81.4708 166° South 287 330 15,000  Level Miami Center
Fri 04:24:20 PM 26.6356 -81.4469 166° South 286 329 15,000  Level Miami Center
Fri 04:25:23 PM 26.5667 -81.4100 154° Southeast 282 325 15,000  Level Miami Center
Fri 04:26:25 PM 26.5039 -81.3486 139° Southeast 281 323 15,000 -145 Level Miami Center
Fri 04:27:27 PM 26.4450 -81.2925 140° Southeast 281 323 14,700 -968 Descending Miami Center
Fri 04:28:29 PM 26.3764 -81.2281 140° Southeast 298 343 13,000 -1,645 Descending Miami Center
Fri 04:29:31 PM 26.3133 -81.1672 139° Southeast 303 349 11,300 -1,620 Descending Miami Center
Fri 04:30:09 PM 26.2786 -81.1342 140° Southeast 240 276 10,300 -1,452 Descending Miami Center
Fri 04:30:33 PM 26.2581 -81.1144 139° Southeast 233 268 9,800 -1,271 Descending Miami Center
Fri 04:31:34 PM 26.2136 -81.0728 140° Southeast 193 222 8,500 -1,122 Descending Miami Center
Fri 04:32:36 PM 26.1675 -81.0411 148° Southeast 197 227 7,500 -884 Descending Miami Center
Fri 04:33:43 PM 26.1161 -80.9950 141° Southeast 219 252 6,600 -836 Descending Miami Center
Fri 04:34:38 PM 26.0969 -80.9400 111° Southeast 211 243 5,800 -793 Descending Miami Center
Fri 04:35:44 PM 26.0681 -80.8725 115° Southeast 230 265 5,000 -375 Descending Miami Center
Fri 04:36:46 PM 26.0439 -80.8136 115° Southeast 205 236 5,000 -439 Level Miami Center
Fri 04:37:47 PM 26.0156 -80.7456 115° Southeast 238 274 4,100 -885 Descending Miami Center
Fri 04:38:48 PM 25.9942 -80.6906 113° Southeast 174 200 3,200 -984 Descending Miami Center
Fri 04:39:49 PM 25.9767 -80.6381 110° East 180 207 2,100 -787 Descending Miami Center
Fri 04:40:50 PM 25.9567 -80.5900 115° Southeast 163 188 1,600 -244 Descending Miami Center
Fri 04:41:52 PM 25.9425 -80.5494 111° Southeast 128 147 1,600  Level Miami Center
Fri 04:42:53 PM 25.9125 -80.5308 151° Southeast 134 154 1,600  Level Miami Center
Fri 04:43:48 PM 25.9044 -80.4933 103° East 140 161 1,600  Level Miami Center
Fri 04:44:01 PM 25.9047 -80.4869 87° East 139 160 1,600  Level Miami Center
Fri 04:44:49 PM 25.9053 -80.4469 89° East 143 165 1,600  Level Miami Center
Fri 04:45:03 PM 25.9056 -80.4414 87° East 144 166 1,600  Level Miami Center
Fri 04:45:50 PM 25.9081 -80.4033 86° East 142 163 1,600  Level Miami Center
Fri 04:46:05 PM 25.9083 -80.3972 87° East 144 166 1,600 -484 Level Miami Center
Fri 04:46:52 PM 25.9086 -80.3617 89° East 119 137 1,100 -571 Descending Miami Center
Fri 04:47:08 PM 25.9097 -80.3569 75° East 131 151 1,000 -492 Descending Miami Center
Fri 04:47:53 PM 25.9108 -80.3247 88° East 115 132 600 -484 Descending Miami Center
Fri 04:48:10 PM 25.9111 -80.3156 88° East 116 133 500 -380 Descending Miami Center
Fri 04:49:12 PM 25.9133 -80.2808 86° East 111 128 100 -387 Descending Miami Center
Fri 04:51:00 PM 25.9074 -80.2782 98° East  Level Estimated

Login

Don't have an account? Register now (free) for customized features, flight alerts, and more!